sensor_id;sensor_type;location;lat;lon;timestamp;temperature;humidity
46440;DHT22;32138;50.966;6.968;2023-05-19T00:00:28;13.60;85.70
46440;DHT22;32138;50.966;6.968;2023-05-19T00:01:30;13.60;85.40
46440;DHT22;32138;50.966;6.968;2023-05-19T00:02:34;13.50;85.90
46440;DHT22;32138;50.966;6.968;2023-05-19T00:03:35;13.50;86.20
46440;DHT22;32138;50.966;6.968;2023-05-19T00:04:40;13.40;86.20
46440;DHT22;32138;50.966;6.968;2023-05-19T00:05:41;13.40;86.30
46440;DHT22;32138;50.966;6.968;2023-05-19T00:06:49;13.30;86.40
46440;DHT22;32138;50.966;6.968;2023-05-19T00:07:51;13.40;87.30
46440;DHT22;32138;50.966;6.968;2023-05-19T00:09:09;13.30;86.80
46440;DHT22;32138;50.966;6.968;2023-05-19T00:10:11;13.20;86.80
46440;DHT22;32138;50.966;6.968;2023-05-19T00:11:12;13.10;87.10
46440;DHT22;32138;50.966;6.968;2023-05-19T00:12:14;13.20;87.10
46440;DHT22;32138;50.966;6.968;2023-05-19T00:13:15;13.20;87.30
46440;DHT22;32138;50.966;6.968;2023-05-19T00:14:16;13.10;87.40
46440;DHT22;32138;50.966;6.968;2023-05-19T00:15:17;13.20;87.50
46440;DHT22;32138;50.966;6.968;2023-05-19T00:16:19;13.20;87.50
46440;DHT22;32138;50.966;6.968;2023-05-19T00:17:20;13.10;87.90
46440;DHT22;32138;50.966;6.968;2023-05-19T00:18:21;13.20;88.00
46440;DHT22;32138;50.966;6.968;2023-05-19T00:19:22;13.30;87.90
46440;DHT22;32138;50.966;6.968;2023-05-19T00:20:23;13.40;87.50
46440;DHT22;32138;50.966;6.968;2023-05-19T00:21:25;13.30;87.30
46440;DHT22;32138;50.966;6.968;2023-05-19T00:22:28;13.20;87.30
46440;DHT22;32138;50.966;6.968;2023-05-19T00:23:29;13.20;87.40
46440;DHT22;32138;50.966;6.968;2023-05-19T00:24:30;13.20;87.50
46440;DHT22;32138;50.966;6.968;2023-05-19T00:25:31;13.10;87.50
46440;DHT22;32138;50.966;6.968;2023-05-19T00:26:32;13.20;87.60
46440;DHT22;32138;50.966;6.968;2023-05-19T00:27:33;13.10;87.50
46440;DHT22;32138;50.966;6.968;2023-05-19T00:28:36;13.10;87.60
46440;DHT22;32138;50.966;6.968;2023-05-19T00:29:37;13.20;87.70
46440;DHT22;32138;50.966;6.968;2023-05-19T00:30:38;13.00;87.90
46440;DHT22;32138;50.966;6.968;2023-05-19T00:31:38;13.00;88.10
46440;DHT22;32138;50.966;6.968;2023-05-19T00:32:39;12.90;88.30
46440;DHT22;32138;50.966;6.968;2023-05-19T00:33:40;12.90;88.30
46440;DHT22;32138;50.966;6.968;2023-05-19T00:34:40;13.00;88.30
46440;DHT22;32138;50.966;6.968;2023-05-19T00:35:42;13.00;88.30
46440;DHT22;32138;50.966;6.968;2023-05-19T00:36:42;13.00;88.30
46440;DHT22;32138;50.966;6.968;2023-05-19T00:37:43;13.10;88.10
46440;DHT22;32138;50.966;6.968;2023-05-19T00:38:44;13.00;88.30
46440;DHT22;32138;50.966;6.968;2023-05-19T00:39:44;12.90;88.50
46440;DHT22;32138;50.966;6.968;2023-05-19T00:40:46;12.90;88.70
46440;DHT22;32138;50.966;6.968;2023-05-19T00:41:47;12.80;88.70
46440;DHT22;32138;50.966;6.968;2023-05-19T00:42:48;12.80;88.90
46440;DHT22;32138;50.966;6.968;2023-05-19T00:43:49;13.00;88.90
46440;DHT22;32138;50.966;6.968;2023-05-19T00:44:51;12.90;88.80
46440;DHT22;32138;50.966;6.968;2023-05-19T00:45:51;12.90;88.50
46440;DHT22;32138;50.966;6.968;2023-05-19T00:46:52;13.00;88.60
46440;DHT22;32138;50.966;6.968;2023-05-19T00:47:53;12.80;89.00
46440;DHT22;32138;50.966;6.968;2023-05-19T00:48:54;12.70;89.30
46440;DHT22;32138;50.966;6.968;2023-05-19T00:49:54;12.80;89.60
46440;DHT22;32138;50.966;6.968;2023-05-19T00:50:56;12.80;89.50
46440;DHT22;32138;50.966;6.968;2023-05-19T00:52:01;12.60;89.80
46440;DHT22;32138;50.966;6.968;2023-05-19T00:53:02;12.50;90.00
46440;DHT22;32138;50.966;6.968;2023-05-19T00:54:03;12.50;90.10
46440;DHT22;32138;50.966;6.968;2023-05-19T00:55:04;12.50;90.10
46440;DHT22;32138;50.966;6.968;2023-05-19T00:56:07;12.40;90.30
46440;DHT22;32138;50.966;6.968;2023-05-19T00:57:08;12.50;90.40
46440;DHT22;32138;50.966;6.968;2023-05-19T00:58:09;12.50;90.40
46440;DHT22;32138;50.966;6.968;2023-05-19T00:59:11;12.60;90.40
46440;DHT22;32138;50.966;6.968;2023-05-19T01:00:12;12.70;90.20
46440;DHT22;32138;50.966;6.968;2023-05-19T01:01:13;12.80;90.20
46440;DHT22;32138;50.966;6.968;2023-05-19T01:02:16;12.70;90.10
46440;DHT22;32138;50.966;6.968;2023-05-19T01:03:18;12.80;90.10
46440;DHT22;32138;50.966;6.968;2023-05-19T01:04:20;12.80;90.10
46440;DHT22;32138;50.966;6.968;2023-05-19T01:05:21;12.70;90.10
46440;DHT22;32138;50.966;6.968;2023-05-19T01:06:22;12.70;90.20
46440;DHT22;32138;50.966;6.968;2023-05-19T01:07:23;12.80;90.20
46440;DHT22;32138;50.966;6.968;2023-05-19T01:08:25;12.60;90.20
46440;DHT22;32138;50.966;6.968;2023-05-19T01:09:25;12.70;90.30
46440;DHT22;32138;50.966;6.968;2023-05-19T01:10:26;12.80;90.30
46440;DHT22;32138;50.966;6.968;2023-05-19T01:11:27;12.70;90.40
46440;DHT22;32138;50.966;6.968;2023-05-19T01:12:28;12.50;90.50
46440;DHT22;32138;50.966;6.968;2023-05-19T01:13:29;12.60;90.60
46440;DHT22;32138;50.966;6.968;2023-05-19T01:14:30;12.60;90.60
46440;DHT22;32138;50.966;6.968;2023-05-19T01:16:09;12.50;90.80
46440;DHT22;32138;50.966;6.968;2023-05-19T01:17:18;12.50;90.70
46440;DHT22;32138;50.966;6.968;2023-05-19T01:18:31;12.50;90.70
46440;DHT22;32138;50.966;6.968;2023-05-19T01:20:05;12.50;90.70
46440;DHT22;32138;50.966;6.968;2023-05-19T01:23:36;12.50;91.00
46440;DHT22;32138;50.966;6.968;2023-05-19T01:25:28;12.50;91.10
46440;DHT22;32138;50.966;6.968;2023-05-19T01:29:43;12.20;91.30
46440;DHT22;32138;50.966;6.968;2023-05-19T01:30:53;12.10;91.60
46440;DHT22;32138;50.966;6.968;2023-05-19T01:31:58;12.10;91.60
46440;DHT22;32138;50.966;6.968;2023-05-19T01:33:02;12.20;91.50
46440;DHT22;32138;50.966;6.968;2023-05-19T01:34:08;12.30;91.50
46440;DHT22;32138;50.966;6.968;2023-05-19T01:35:11;12.30;91.40
46440;DHT22;32138;50.966;6.968;2023-05-19T01:36:15;12.30;91.40
46440;DHT22;32138;50.966;6.968;2023-05-19T01:37:16;12.30;91.60
46440;DHT22;32138;50.966;6.968;2023-05-19T01:38:20;12.20;91.50
46440;DHT22;32138;50.966;6.968;2023-05-19T01:39:22;12.10;91.70
46440;DHT22;32138;50.966;6.968;2023-05-19T01:40:24;12.20;91.70
46440;DHT22;32138;50.966;6.968;2023-05-19T01:41:25;12.20;91.70
46440;DHT22;32138;50.966;6.968;2023-05-19T01:42:28;12.20;91.60
46440;DHT22;32138;50.966;6.968;2023-05-19T01:43:29;12.30;91.50
46440;DHT22;32138;50.966;6.968;2023-05-19T01:44:31;12.20;91.50
46440;DHT22;32138;50.966;6.968;2023-05-19T01:45:33;12.10;91.80
46440;DHT22;32138;50.966;6.968;2023-05-19T01:46:36;12.00;92.20
46440;DHT22;32138;50.966;6.968;2023-05-19T01:47:40;12.20;91.90
46440;DHT22;32138;50.966;6.968;2023-05-19T01:48:43;12.10;91.80
46440;DHT22;32138;50.966;6.968;2023-05-19T01:49:44;12.20;92.00
46440;DHT22;32138;50.966;6.968;2023-05-19T01:50:45;12.20;91.90
46440;DHT22;32138;50.966;6.968;2023-05-19T01:51:48;12.20;91.90
46440;DHT22;32138;50.966;6.968;2023-05-19T01:52:49;12.10;91.90
46440;DHT22;32138;50.966;6.968;2023-05-19T01:53:50;12.00;92.10
46440;DHT22;32138;50.966;6.968;2023-05-19T01:54:51;12.00;92.10
46440;DHT22;32138;50.966;6.968;2023-05-19T01:55:54;12.10;92.10
46440;DHT22;32138;50.966;6.968;2023-05-19T01:57:09;12.10;92.10
46440;DHT22;32138;50.966;6.968;2023-05-19T01:58:26;12.10;92.10
46440;DHT22;32138;50.966;6.968;2023-05-19T02:02:37;12.20;92.40
46440;DHT22;32138;50.966;6.968;2023-05-19T02:06:57;12.20;92.30
46440;DHT22;32138;50.966;6.968;2023-05-19T02:08:10;12.30;92.40
46440;DHT22;32138;50.966;6.968;2023-05-19T02:09:38;12.30;92.30
46440;DHT22;32138;50.966;6.968;2023-05-19T02:10:44;12.30;92.10
46440;DHT22;32138;50.966;6.968;2023-05-19T02:12:10;12.30;92.00
46440;DHT22;32138;50.966;6.968;2023-05-19T02:13:19;12.20;92.00
46440;DHT22;32138;50.966;6.968;2023-05-19T02:14:34;12.00;92.30
46440;DHT22;32138;50.966;6.968;2023-05-19T02:15:41;12.10;92.40
46440;DHT22;32138;50.966;6.968;2023-05-19T02:16:45;12.10;92.50
46440;DHT22;32138;50.966;6.968;2023-05-19T02:17:47;12.20;92.30
46440;DHT22;32138;50.966;6.968;2023-05-19T02:18:51;12.20;92.50
46440;DHT22;32138;50.966;6.968;2023-05-19T02:19:53;12.20;92.50
46440;DHT22;32138;50.966;6.968;2023-05-19T02:20:54;12.00;92.50
46440;DHT22;32138;50.966;6.968;2023-05-19T02:21:55;11.90;92.70
46440;DHT22;32138;50.966;6.968;2023-05-19T02:22:55;12.00;92.80
46440;DHT22;32138;50.966;6.968;2023-05-19T02:23:56;12.10;92.60
46440;DHT22;32138;50.966;6.968;2023-05-19T02:24:57;12.00;92.50
46440;DHT22;32138;50.966;6.968;2023-05-19T02:25:58;11.90;92.80
46440;DHT22;32138;50.966;6.968;2023-05-19T02:26:58;11.90;93.00
46440;DHT22;32138;50.966;6.968;2023-05-19T02:27:59;11.90;93.00
46440;DHT22;32138;50.966;6.968;2023-05-19T02:29:00;12.00;93.00
46440;DHT22;32138;50.966;6.968;2023-05-19T02:30:04;12.00;92.90
46440;DHT22;32138;50.966;6.968;2023-05-19T02:31:06;12.00;93.00
46440;DHT22;32138;50.966;6.968;2023-05-19T02:32:09;11.90;93.10
46440;DHT22;32138;50.966;6.968;2023-05-19T02:33:10;12.10;93.00
46440;DHT22;32138;50.966;6.968;2023-05-19T02:34:11;12.20;93.10
46440;DHT22;32138;50.966;6.968;2023-05-19T02:35:12;12.20;92.70
46440;DHT22;32138;50.966;6.968;2023-05-19T02:36:13;12.20;92.70
46440;DHT22;32138;50.966;6.968;2023-05-19T02:37:14;12.20;92.70
46440;DHT22;32138;50.966;6.968;2023-05-19T02:38:15;11.90;92.80
46440;DHT22;32138;50.966;6.968;2023-05-19T02:39:17;11.80;93.10
46440;DHT22;32138;50.966;6.968;2023-05-19T02:40:18;11.80;93.20
46440;DHT22;32138;50.966;6.968;2023-05-19T02:41:19;11.90;93.30
46440;DHT22;32138;50.966;6.968;2023-05-19T02:42:21;11.90;93.30
46440;DHT22;32138;50.966;6.968;2023-05-19T02:43:22;11.90;93.20
46440;DHT22;32138;50.966;6.968;2023-05-19T02:44:22;11.80;93.20
46440;DHT22;32138;50.966;6.968;2023-05-19T02:45:23;11.70;93.50
46440;DHT22;32138;50.966;6.968;2023-05-19T02:46:24;11.90;93.40
46440;DHT22;32138;50.966;6.968;2023-05-19T02:47:25;12.00;93.20
46440;DHT22;32138;50.966;6.968;2023-05-19T02:48:26;11.90;93.20
46440;DHT22;32138;50.966;6.968;2023-05-19T02:49:26;11.90;93.30
46440;DHT22;32138;50.966;6.968;2023-05-19T02:50:30;11.80;93.40
46440;DHT22;32138;50.966;6.968;2023-05-19T02:51:30;11.80;93.70
46440;DHT22;32138;50.966;6.968;2023-05-19T02:52:31;11.90;93.50
46440;DHT22;32138;50.966;6.968;2023-05-19T02:53:32;11.90;93.40
46440;DHT22;32138;50.966;6.968;2023-05-19T02:54:33;11.80;93.40
46440;DHT22;32138;50.966;6.968;2023-05-19T02:55:34;11.90;93.40
46440;DHT22;32138;50.966;6.968;2023-05-19T02:56:35;11.70;93.40
46440;DHT22;32138;50.966;6.968;2023-05-19T02:57:36;11.70;93.50
46440;DHT22;32138;50.966;6.968;2023-05-19T02:58:37;11.70;93.70
46440;DHT22;32138;50.966;6.968;2023-05-19T02:59:38;11.70;93.70
46440;DHT22;32138;50.966;6.968;2023-05-19T03:00:39;11.60;93.80
46440;DHT22;32138;50.966;6.968;2023-05-19T03:01:40;11.60;93.90
46440;DHT22;32138;50.966;6.968;2023-05-19T03:02:40;11.50;93.90
46440;DHT22;32138;50.966;6.968;2023-05-19T03:03:43;11.60;94.00
46440;DHT22;32138;50.966;6.968;2023-05-19T03:04:43;11.60;93.80
46440;DHT22;32138;50.966;6.968;2023-05-19T03:05:44;11.60;93.80
46440;DHT22;32138;50.966;6.968;2023-05-19T03:06:46;11.60;93.80
46440;DHT22;32138;50.966;6.968;2023-05-19T03:07:47;11.60;93.90
46440;DHT22;32138;50.966;6.968;2023-05-19T03:08:48;11.60;93.90
46440;DHT22;32138;50.966;6.968;2023-05-19T03:09:49;11.60;93.90
46440;DHT22;32138;50.966;6.968;2023-05-19T03:10:50;11.60;93.90
46440;DHT22;32138;50.966;6.968;2023-05-19T03:11:50;11.60;94.00
46440;DHT22;32138;50.966;6.968;2023-05-19T03:12:51;11.60;94.20
46440;DHT22;32138;50.966;6.968;2023-05-19T03:13:52;11.50;94.20
46440;DHT22;32138;50.966;6.968;2023-05-19T03:14:53;11.50;94.20
46440;DHT22;32138;50.966;6.968;2023-05-19T03:15:53;11.50;94.30
46440;DHT22;32138;50.966;6.968;2023-05-19T03:16:57;11.30;94.50
46440;DHT22;32138;50.966;6.968;2023-05-19T03:17:59;11.30;94.60
46440;DHT22;32138;50.966;6.968;2023-05-19T03:18:59;11.40;94.40
46440;DHT22;32138;50.966;6.968;2023-05-19T03:20:00;11.60;94.30
46440;DHT22;32138;50.966;6.968;2023-05-19T03:21:01;11.60;94.10
46440;DHT22;32138;50.966;6.968;2023-05-19T03:22:02;11.60;94.00
46440;DHT22;32138;50.966;6.968;2023-05-19T03:23:04;11.50;94.20
46440;DHT22;32138;50.966;6.968;2023-05-19T03:24:05;11.50;94.30
46440;DHT22;32138;50.966;6.968;2023-05-19T03:25:06;11.40;94.40
46440;DHT22;32138;50.966;6.968;2023-05-19T03:26:07;11.40;94.40
46440;DHT22;32138;50.966;6.968;2023-05-19T03:27:08;11.40;94.40
46440;DHT22;32138;50.966;6.968;2023-05-19T03:28:10;11.30;94.40
46440;DHT22;32138;50.966;6.968;2023-05-19T03:29:11;11.30;94.50
46440;DHT22;32138;50.966;6.968;2023-05-19T03:30:12;11.40;94.60
46440;DHT22;32138;50.966;6.968;2023-05-19T03:31:13;11.30;94.60
46440;DHT22;32138;50.966;6.968;2023-05-19T03:32:14;11.30;94.70
46440;DHT22;32138;50.966;6.968;2023-05-19T03:33:15;11.30;94.90
46440;DHT22;32138;50.966;6.968;2023-05-19T03:34:16;11.20;94.90
46440;DHT22;32138;50.966;6.968;2023-05-19T03:35:17;11.20;95.00
46440;DHT22;32138;50.966;6.968;2023-05-19T03:36:18;11.30;94.90
46440;DHT22;32138;50.966;6.968;2023-05-19T03:37:18;11.20;94.90
46440;DHT22;32138;50.966;6.968;2023-05-19T03:38:19;11.20;95.00
46440;DHT22;32138;50.966;6.968;2023-05-19T03:39:20;11.40;94.90
46440;DHT22;32138;50.966;6.968;2023-05-19T03:40:21;11.40;94.80
46440;DHT22;32138;50.966;6.968;2023-05-19T03:41:21;11.30;95.00
46440;DHT22;32138;50.966;6.968;2023-05-19T03:42:22;11.20;94.90
46440;DHT22;32138;50.966;6.968;2023-05-19T03:43:23;11.30;95.00
46440;DHT22;32138;50.966;6.968;2023-05-19T03:44:24;11.30;94.80
46440;DHT22;32138;50.966;6.968;2023-05-19T03:45:24;11.30;94.80
46440;DHT22;32138;50.966;6.968;2023-05-19T03:46:25;11.10;95.00
46440;DHT22;32138;50.966;6.968;2023-05-19T03:47:26;11.20;95.20
46440;DHT22;32138;50.966;6.968;2023-05-19T03:48:27;11.10;95.10
46440;DHT22;32138;50.966;6.968;2023-05-19T03:49:27;10.90;95.70
46440;DHT22;32138;50.966;6.968;2023-05-19T03:50:28;11.10;95.80
46440;DHT22;32138;50.966;6.968;2023-05-19T03:51:30;11.20;95.40
46440;DHT22;32138;50.966;6.968;2023-05-19T03:52:31;11.30;95.60
46440;DHT22;32138;50.966;6.968;2023-05-19T03:53:32;11.10;95.20
46440;DHT22;32138;50.966;6.968;2023-05-19T03:54:33;11.20;95.40
46440;DHT22;32138;50.966;6.968;2023-05-19T03:55:34;11.30;95.40
46440;DHT22;32138;50.966;6.968;2023-05-19T03:56:38;11.30;95.30
46440;DHT22;32138;50.966;6.968;2023-05-19T03:57:39;11.40;95.20
46440;DHT22;32138;50.966;6.968;2023-05-19T03:58:43;11.30;95.20
46440;DHT22;32138;50.966;6.968;2023-05-19T03:59:46;11.30;95.10
46440;DHT22;32138;50.966;6.968;2023-05-19T04:00:46;11.20;95.30
46440;DHT22;32138;50.966;6.968;2023-05-19T04:01:47;11.20;95.40
46440;DHT22;32138;50.966;6.968;2023-05-19T04:02:48;11.30;95.70
46440;DHT22;32138;50.966;6.968;2023-05-19T04:03:49;11.50;95.30
46440;DHT22;32138;50.966;6.968;2023-05-19T04:04:50;11.40;95.40
46440;DHT22;32138;50.966;6.968;2023-05-19T04:05:51;11.30;95.30
46440;DHT22;32138;50.966;6.968;2023-05-19T04:06:52;11.30;95.40
46440;DHT22;32138;50.966;6.968;2023-05-19T04:07:53;11.40;95.40
46440;DHT22;32138;50.966;6.968;2023-05-19T04:08:53;11.40;95.40
46440;DHT22;32138;50.966;6.968;2023-05-19T04:09:55;11.40;95.30
46440;DHT22;32138;50.966;6.968;2023-05-19T04:10:56;11.50;94.90
46440;DHT22;32138;50.966;6.968;2023-05-19T04:11:56;11.60;95.00
46440;DHT22;32138;50.966;6.968;2023-05-19T04:12:57;11.40;95.20
46440;DHT22;32138;50.966;6.968;2023-05-19T04:13:58;11.20;95.60
46440;DHT22;32138;50.966;6.968;2023-05-19T04:14:59;11.30;95.70
46440;DHT22;32138;50.966;6.968;2023-05-19T04:16:00;11.30;95.70
46440;DHT22;32138;50.966;6.968;2023-05-19T04:17:01;11.30;95.60
46440;DHT22;32138;50.966;6.968;2023-05-19T04:18:01;11.30;95.80
46440;DHT22;32138;50.966;6.968;2023-05-19T04:19:02;11.20;95.90
46440;DHT22;32138;50.966;6.968;2023-05-19T04:20:03;11.30;95.90
46440;DHT22;32138;50.966;6.968;2023-05-19T04:21:07;11.30;95.90
46440;DHT22;32138;50.966;6.968;2023-05-19T04:22:08;11.30;96.00
46440;DHT22;32138;50.966;6.968;2023-05-19T04:23:08;11.30;95.90
46440;DHT22;32138;50.966;6.968;2023-05-19T04:24:09;11.40;95.90
46440;DHT22;32138;50.966;6.968;2023-05-19T04:25:10;11.30;96.10
46440;DHT22;32138;50.966;6.968;2023-05-19T04:26:11;11.40;95.90
46440;DHT22;32138;50.966;6.968;2023-05-19T04:27:14;11.50;95.90
46440;DHT22;32138;50.966;6.968;2023-05-19T04:28:15;11.20;95.90
46440;DHT22;32138;50.966;6.968;2023-05-19T04:29:17;11.40;96.00
46440;DHT22;32138;50.966;6.968;2023-05-19T04:30:18;11.10;96.10
46440;DHT22;32138;50.966;6.968;2023-05-19T04:31:21;11.30;96.20
46440;DHT22;32138;50.966;6.968;2023-05-19T04:32:22;11.50;96.10
46440;DHT22;32138;50.966;6.968;2023-05-19T04:33:23;11.60;96.30
46440;DHT22;32138;50.966;6.968;2023-05-19T04:34:24;11.60;95.90
46440;DHT22;32138;50.966;6.968;2023-05-19T04:35:24;11.70;95.80
46440;DHT22;32138;50.966;6.968;2023-05-19T04:36:25;11.70;95.70
46440;DHT22;32138;50.966;6.968;2023-05-19T04:37:26;11.70;95.70
46440;DHT22;32138;50.966;6.968;2023-05-19T04:38:27;11.60;95.90
46440;DHT22;32138;50.966;6.968;2023-05-19T04:39:29;11.70;95.80
46440;DHT22;32138;50.966;6.968;2023-05-19T04:40:30;11.80;95.60
46440;DHT22;32138;50.966;6.968;2023-05-19T04:41:31;11.70;95.70
46440;DHT22;32138;50.966;6.968;2023-05-19T04:42:33;11.60;95.90
46440;DHT22;32138;50.966;6.968;2023-05-19T04:43:33;11.60;95.90
46440;DHT22;32138;50.966;6.968;2023-05-19T04:44:34;11.40;96.00
46440;DHT22;32138;50.966;6.968;2023-05-19T04:45:37;11.40;96.30
46440;DHT22;32138;50.966;6.968;2023-05-19T04:46:41;11.50;96.30
46440;DHT22;32138;50.966;6.968;2023-05-19T04:47:44;11.70;96.30
46440;DHT22;32138;50.966;6.968;2023-05-19T04:48:47;11.60;96.20
46440;DHT22;32138;50.966;6.968;2023-05-19T04:49:49;11.70;96.40
46440;DHT22;32138;50.966;6.968;2023-05-19T04:50:54;11.80;96.30
46440;DHT22;32138;50.966;6.968;2023-05-19T04:51:55;11.80;96.20
46440;DHT22;32138;50.966;6.968;2023-05-19T04:52:56;11.80;96.10
46440;DHT22;32138;50.966;6.968;2023-05-19T04:53:58;12.00;96.00
46440;DHT22;32138;50.966;6.968;2023-05-19T04:54:59;12.00;96.20
46440;DHT22;32138;50.966;6.968;2023-05-19T04:56:00;12.10;95.80
46440;DHT22;32138;50.966;6.968;2023-05-19T04:57:02;12.00;95.80
46440;DHT22;32138;50.966;6.968;2023-05-19T04:58:03;12.00;95.90
46440;DHT22;32138;50.966;6.968;2023-05-19T04:59:03;12.00;95.90
46440;DHT22;32138;50.966;6.968;2023-05-19T05:00:05;11.90;95.80
46440;DHT22;32138;50.966;6.968;2023-05-19T05:01:08;12.00;95.90
46440;DHT22;32138;50.966;6.968;2023-05-19T05:02:09;11.80;96.20
46440;DHT22;32138;50.966;6.968;2023-05-19T05:03:10;11.90;96.10
46440;DHT22;32138;50.966;6.968;2023-05-19T05:04:11;11.90;96.10
46440;DHT22;32138;50.966;6.968;2023-05-19T05:05:12;11.90;95.90
46440;DHT22;32138;50.966;6.968;2023-05-19T05:06:13;11.90;95.70
46440;DHT22;32138;50.966;6.968;2023-05-19T05:07:13;12.00;95.70
46440;DHT22;32138;50.966;6.968;2023-05-19T05:08:14;12.10;95.30
46440;DHT22;32138;50.966;6.968;2023-05-19T05:09:21;12.10;95.80
46440;DHT22;32138;50.966;6.968;2023-05-19T05:10:22;12.20;95.60
46440;DHT22;32138;50.966;6.968;2023-05-19T05:11:23;12.30;95.60
46440;DHT22;32138;50.966;6.968;2023-05-19T05:12:24;12.30;95.60
46440;DHT22;32138;50.966;6.968;2023-05-19T05:13:25;12.30;95.50
46440;DHT22;32138;50.966;6.968;2023-05-19T05:14:26;12.40;95.50
46440;DHT22;32138;50.966;6.968;2023-05-19T05:15:27;12.40;95.40
46440;DHT22;32138;50.966;6.968;2023-05-19T05:16:29;12.40;95.30
46440;DHT22;32138;50.966;6.968;2023-05-19T05:17:30;12.40;95.30
46440;DHT22;32138;50.966;6.968;2023-05-19T05:18:32;12.40;95.30
46440;DHT22;32138;50.966;6.968;2023-05-19T05:19:34;12.50;95.20
46440;DHT22;32138;50.966;6.968;2023-05-19T05:20:35;12.40;95.30
46440;DHT22;32138;50.966;6.968;2023-05-19T05:21:36;12.40;95.40
46440;DHT22;32138;50.966;6.968;2023-05-19T05:22:37;12.30;95.20
46440;DHT22;32138;50.966;6.968;2023-05-19T05:23:38;12.40;95.10
46440;DHT22;32138;50.966;6.968;2023-05-19T05:24:40;12.30;95.10
46440;DHT22;32138;50.966;6.968;2023-05-19T05:25:41;12.30;95.20
46440;DHT22;32138;50.966;6.968;2023-05-19T05:26:42;12.20;95.20
46440;DHT22;32138;50.966;6.968;2023-05-19T05:27:43;12.10;95.10
46440;DHT22;32138;50.966;6.968;2023-05-19T05:28:44;12.30;95.20
46440;DHT22;32138;50.966;6.968;2023-05-19T05:29:45;12.50;95.00
46440;DHT22;32138;50.966;6.968;2023-05-19T05:30:46;12.50;95.00
46440;DHT22;32138;50.966;6.968;2023-05-19T05:31:46;12.60;94.90
46440;DHT22;32138;50.966;6.968;2023-05-19T05:32:47;12.60;94.60
46440;DHT22;32138;50.966;6.968;2023-05-19T05:33:48;12.60;94.60
46440;DHT22;32138;50.966;6.968;2023-05-19T05:34:49;12.80;94.40
46440;DHT22;32138;50.966;6.968;2023-05-19T05:35:50;12.90;94.60
46440;DHT22;32138;50.966;6.968;2023-05-19T05:36:51;13.00;94.20
46440;DHT22;32138;50.966;6.968;2023-05-19T05:37:51;13.10;94.10
46440;DHT22;32138;50.966;6.968;2023-05-19T05:38:52;13.10;93.70
46440;DHT22;32138;50.966;6.968;2023-05-19T05:39:53;13.10;93.70
46440;DHT22;32138;50.966;6.968;2023-05-19T05:40:53;13.10;93.60
46440;DHT22;32138;50.966;6.968;2023-05-19T05:41:54;13.00;93.70
46440;DHT22;32138;50.966;6.968;2023-05-19T05:42:55;13.10;93.70
46440;DHT22;32138;50.966;6.968;2023-05-19T05:43:58;13.20;93.40
46440;DHT22;32138;50.966;6.968;2023-05-19T05:44:58;13.30;92.70
46440;DHT22;32138;50.966;6.968;2023-05-19T05:45:59;13.30;92.70
46440;DHT22;32138;50.966;6.968;2023-05-19T05:47:01;13.30;92.80
46440;DHT22;32138;50.966;6.968;2023-05-19T05:48:03;13.40;92.60
46440;DHT22;32138;50.966;6.968;2023-05-19T05:49:04;13.30;92.40
46440;DHT22;32138;50.966;6.968;2023-05-19T05:50:09;13.30;92.50
46440;DHT22;32138;50.966;6.968;2023-05-19T05:51:10;13.30;92.50
46440;DHT22;32138;50.966;6.968;2023-05-19T05:52:11;13.40;92.60
46440;DHT22;32138;50.966;6.968;2023-05-19T05:53:17;13.50;92.30
46440;DHT22;32138;50.966;6.968;2023-05-19T05:54:21;13.50;92.00
46440;DHT22;32138;50.966;6.968;2023-05-19T05:55:22;13.50;91.90
46440;DHT22;32138;50.966;6.968;2023-05-19T05:56:23;13.50;91.60
46440;DHT22;32138;50.966;6.968;2023-05-19T05:57:24;13.50;90.80
46440;DHT22;32138;50.966;6.968;2023-05-19T05:58:27;13.40;90.80
46440;DHT22;32138;50.966;6.968;2023-05-19T05:59:28;13.30;90.70
46440;DHT22;32138;50.966;6.968;2023-05-19T06:00:28;13.40;90.40
46440;DHT22;32138;50.966;6.968;2023-05-19T06:01:29;13.50;90.50
46440;DHT22;32138;50.966;6.968;2023-05-19T06:02:30;13.60;90.40
46440;DHT22;32138;50.966;6.968;2023-05-19T06:03:32;13.70;90.40
46440;DHT22;32138;50.966;6.968;2023-05-19T06:04:33;13.70;90.20
46440;DHT22;32138;50.966;6.968;2023-05-19T06:05:34;13.70;90.30
46440;DHT22;32138;50.966;6.968;2023-05-19T06:06:35;13.70;90.50
46440;DHT22;32138;50.966;6.968;2023-05-19T06:07:38;13.70;90.30
46440;DHT22;32138;50.966;6.968;2023-05-19T06:08:39;13.80;90.10
46440;DHT22;32138;50.966;6.968;2023-05-19T06:09:40;13.70;90.20
46440;DHT22;32138;50.966;6.968;2023-05-19T06:10:41;13.80;89.80
46440;DHT22;32138;50.966;6.968;2023-05-19T06:11:42;13.80;89.00
46440;DHT22;32138;50.966;6.968;2023-05-19T06:12:43;13.70;88.00
46440;DHT22;32138;50.966;6.968;2023-05-19T06:13:44;13.60;89.00
46440;DHT22;32138;50.966;6.968;2023-05-19T06:14:45;13.70;89.30
46440;DHT22;32138;50.966;6.968;2023-05-19T06:15:46;13.80;88.70
46440;DHT22;32138;50.966;6.968;2023-05-19T06:16:46;13.90;88.70
46440;DHT22;32138;50.966;6.968;2023-05-19T06:17:47;14.00;87.70
46440;DHT22;32138;50.966;6.968;2023-05-19T06:18:48;14.00;87.60
46440;DHT22;32138;50.966;6.968;2023-05-19T06:19:49;14.00;87.40
46440;DHT22;32138;50.966;6.968;2023-05-19T06:20:50;14.00;87.30
46440;DHT22;32138;50.966;6.968;2023-05-19T06:21:51;14.00;87.00
46440;DHT22;32138;50.966;6.968;2023-05-19T06:22:51;14.10;87.00
46440;DHT22;32138;50.966;6.968;2023-05-19T06:23:52;14.10;87.20
46440;DHT22;32138;50.966;6.968;2023-05-19T06:24:53;14.10;87.40
46440;DHT22;32138;50.966;6.968;2023-05-19T06:25:54;14.20;87.20
46440;DHT22;32138;50.966;6.968;2023-05-19T06:26:55;14.30;86.80
46440;DHT22;32138;50.966;6.968;2023-05-19T06:27:56;14.30;86.30
46440;DHT22;32138;50.966;6.968;2023-05-19T06:28:57;14.20;86.50
46440;DHT22;32138;50.966;6.968;2023-05-19T06:29:57;14.20;86.70
46440;DHT22;32138;50.966;6.968;2023-05-19T06:30:58;14.20;86.70
46440;DHT22;32138;50.966;6.968;2023-05-19T06:31:59;14.10;87.10
46440;DHT22;32138;50.966;6.968;2023-05-19T06:33:00;14.20;87.60
46440;DHT22;32138;50.966;6.968;2023-05-19T06:34:02;14.30;86.90
46440;DHT22;32138;50.966;6.968;2023-05-19T06:35:03;14.30;86.70
46440;DHT22;32138;50.966;6.968;2023-05-19T06:36:04;14.30;85.50
46440;DHT22;32138;50.966;6.968;2023-05-19T06:37:05;14.40;85.80
46440;DHT22;32138;50.966;6.968;2023-05-19T06:38:06;14.40;85.40
46440;DHT22;32138;50.966;6.968;2023-05-19T06:39:06;14.40;86.20
46440;DHT22;32138;50.966;6.968;2023-05-19T06:40:08;14.40;85.80
46440;DHT22;32138;50.966;6.968;2023-05-19T06:41:09;14.40;86.20
46440;DHT22;32138;50.966;6.968;2023-05-19T06:42:10;14.50;86.70
46440;DHT22;32138;50.966;6.968;2023-05-19T06:43:11;14.50;85.70
46440;DHT22;32138;50.966;6.968;2023-05-19T06:44:11;14.40;85.30